Time;durP1;ratioP1;P1;durP2;ratioP2;P2;SDS_P1;SDS_P2;PMS_P1;PMS_P2;Temp;Humidity;BMP_temperature;BMP_pressure;BME280_temperature;BME280_humidity;BME280_pressure;Samples;Min_cycle;Max_cycle;Signal;HPM_P1;HPM_P2
2024/01/30 00:00:33;;;;;;;70.40;38.83;;;;;;;1.26;86.37;103157.25;4959745;28;20081;-82
2024/01/30 00:03:00;;;;;;;68.05;38.45;;;;;;;2.05;86.17;103310.16;4987704;28;20355;-82
2024/01/30 00:05:27;;;;;;;71.75;37.78;;;;;;;2.10;86.74;103321.44;4971855;28;20070;-84
2024/01/30 00:07:53;;;;;;;72.50;38.67;;;;;;;2.20;86.32;103331.84;4971612;28;20047;-82
2024/01/30 00:10:20;;;;;;;67.65;38.42;;;;;;;2.16;86.38;103328.41;4971407;28;20058;-82
2024/01/30 00:12:47;;;;;;;67.18;39.33;;;;;;;1.94;86.72;103298.88;4972823;28;20060;-82
2024/01/30 00:15:14;;;;;;;71.88;38.30;;;;;;;1.91;86.72;103276.22;4989673;28;20054;-82
2024/01/30 00:17:41;;;;;;;70.00;38.45;;;;;;;1.74;86.85;103244.09;4973302;28;20090;-82
2024/01/30 00:20:09;;;;;;;69.15;40.35;;;;;;;2.10;86.29;103320.59;4988757;28;20046;-83
2024/01/30 00:22:36;;;;;;;69.65;38.03;;;;;;;2.10;86.56;103308.34;4990046;28;20050;-83
2024/01/30 00:25:03;;;;;;;73.88;37.03;;;;;;;2.16;86.51;103307.44;4971608;28;20061;-83
2024/01/30 00:27:30;;;;;;;68.10;38.78;;;;;;;1.90;85.70;103284.97;4989623;28;20591;-82
2024/01/30 00:29:56;;;;;;;69.68;38.17;;;;;;;1.83;86.14;103285.91;4988796;28;20050;-83
2024/01/30 00:32:23;;;;;;;73.78;37.45;;;;;;;1.92;85.96;103305.94;4971612;28;20054;-82
2024/01/30 00:34:50;;;;;;;72.20;35.50;;;;;;;1.70;86.88;103279.06;4988841;28;20054;-83
2024/01/30 00:37:17;;;;;;;63.35;37.22;;;;;;;1.61;86.51;103266.03;4972799;28;20046;-82
2024/01/30 00:39:44;;;;;;;67.03;37.05;;;;;;;1.88;87.55;103315.56;4969794;28;20113;-82
2024/01/30 00:42:13;;;;;;;70.50;35.00;;;;;;;1.76;87.41;103310.41;4990329;28;20050;-83
2024/01/30 00:44:39;;;;;;;63.65;35.05;;;;;;;1.89;87.35;103311.16;4973330;28;20097;-82
2024/01/30 00:47:06;;;;;;;61.75;35.35;;;;;;;1.93;87.03;103305.03;4991032;28;20050;-83
2024/01/30 00:49:33;;;;;;;69.35;32.70;;;;;;;1.49;86.61;103243.44;4975759;28;20058;-83
2024/01/30 00:52:00;;;;;;;66.55;36.67;;;;;;;1.78;86.65;103303.41;4973935;28;20137;-82
2024/01/30 00:54:27;;;;;;;70.03;36.13;;;;;;;1.80;86.61;103299.03;4988914;28;20488;-83
2024/01/30 00:56:54;;;;;;;59.25;35.03;;;;;;;1.48;87.22;103263.53;4972677;28;20058;-82
2024/01/30 00:59:20;;;;;;;59.85;35.22;;;;;;;1.55;87.51;103272.19;4971988;28;20058;-83
2024/01/30 01:01:47;;;;;;;75.95;34.70;;;;;;;1.64;87.26;103295.69;4989888;28;20094;-83
2024/01/30 01:04:15;;;;;;;61.25;34.88;;;;;;;0.91;87.36;103175.88;4981273;28;20516;-83
2024/01/30 01:06:43;;;;;;;57.95;33.53;;;;;;;1.65;87.50;103307.00;4981543;28;20054;-82
2024/01/30 01:09:12;;;;;;;59.55;35.53;;;;;;;1.29;87.79;103251.47;4971374;28;20062;-83
2024/01/30 01:11:39;;;;;;;57.83;33.40;;;;;;;0.89;87.43;103181.13;4988212;28;20077;-82
2024/01/30 01:14:06;;;;;;;61.67;35.80;;;;;;;1.60;87.52;103295.72;4985025;28;20308;-82
2024/01/30 01:16:33;;;;;;;61.50;36.33;;;;;;;1.59;87.97;103286.13;4969143;28;20125;-83
2024/01/30 01:19:00;;;;;;;55.03;34.30;;;;;;;1.70;87.98;103311.34;4980614;28;20057;-83
2024/01/30 01:21:28;;;;;;;54.60;33.63;;;;;;;1.81;87.53;103311.25;4954790;28;20055;-83
2024/01/30 01:23:54;;;;;;;61.65;33.67;;;;;;;1.63;86.68;103277.38;4974981;28;20058;-83
2024/01/30 01:26:21;;;;;;;62.85;34.70;;;;;;;1.57;86.62;103278.28;4975621;28;20046;-82
2024/01/30 01:28:48;;;;;;;59.83;32.80;;;;;;;1.51;86.95;103264.41;4977608;28;20050;-83
2024/01/30 01:31:15;;;;;;;58.50;34.25;;;;;;;1.36;86.25;103263.63;4977847;28;20058;-83
2024/01/30 01:33:42;;;;;;;53.50;31.65;;;;;;;1.14;86.58;103230.63;4971189;28;20253;-83
2024/01/30 01:36:09;;;;;;;58.88;32.25;;;;;;;1.49;86.31;103294.06;4975177;28;20058;-83
2024/01/30 01:38:36;;;;;;;56.92;32.70;;;;;;;1.35;86.19;103280.19;4984060;28;20405;-83
2024/01/30 01:41:03;;;;;;;56.50;34.05;;;;;;;1.44;86.59;103285.38;4971477;28;20060;-83
2024/01/30 01:43:30;;;;;;;52.97;31.65;;;;;;;0.99;86.79;103214.16;4987537;28;20082;-82
2024/01/30 01:45:57;;;;;;;57.13;34.08;;;;;;;1.23;86.31;103251.50;4970967;28;20053;-82
2024/01/30 01:48:25;;;;;;;52.05;33.03;;;;;;;1.12;86.31;103225.44;4966989;28;20054;-83
2024/01/30 01:50:52;;;;;;;50.05;31.02;;;;;;;1.23;86.27;103252.38;4969395;28;20082;-83
2024/01/30 01:53:20;;;;;;;58.60;31.75;;;;;;;1.53;86.07;103302.78;4969588;28;20564;-82
2024/01/30 01:55:47;;;;;;;57.55;32.42;;;;;;;1.43;85.56;103286.25;4968393;28;20141;-82
2024/01/30 01:58:14;;;;;;;49.30;30.75;;;;;;;1.49;86.04;103296.69;4983695;28;20405;-82
2024/01/30 02:00:42;;;;;;;55.30;31.85;;;;;;;1.28;85.69;103270.66;4952213;28;20058;-82
2024/01/30 02:03:12;;;;;;;46.15;31.20;;;;;;;0.52;85.02;103144.75;4963791;28;20070;-83
2024/01/30 02:05:41;;;;;;;51.47;32.08;;;;;;;0.87;84.69;103200.31;4971099;28;20153;-82
2024/01/30 02:08:08;;;;;;;47.70;31.98;;;;;;;1.41;84.66;103290.63;4971271;28;20141;-83
2024/01/30 02:10:35;;;;;;;45.00;30.13;;;;;;;1.07;84.68;103235.06;4986971;28;20050;-82
2024/01/30 02:13:02;;;;;;;46.05;29.15;;;;;;;1.41;84.71;103303.72;4971630;28;20140;-83
2024/01/30 02:15:29;;;;;;;45.85;30.38;;;;;;;0.92;84.54;103209.84;4971174;28;20366;-83
2024/01/30 02:17:56;;;;;;;44.72;29.92;;;;;;;1.29;84.36;103269.78;4987479;28;20062;-83
2024/01/30 02:20:25;;;;;;;44.58;30.50;;;;;;;1.32;83.55;103277.63;4987076;28;20487;-83
2024/01/30 02:22:56;;;;;;;42.77;29.03;;;;;;;1.19;83.22;103257.63;4972228;28;20054;-83
2024/01/30 02:25:32;;;;;;;42.58;28.85;;;;;;;1.35;83.17;103287.19;4988844;28;20078;-82
2024/01/30 02:27:58;;;;;;;43.75;30.48;;;;;;;0.22;83.10;103101.41;4987117;28;20511;-82
2024/01/30 02:30:26;;;;;;;45.42;31.02;;;;;;;1.25;82.91;103273.31;4988835;28;20066;-82
2024/01/30 02:32:52;;;;;;;45.35;29.58;;;;;;;0.93;82.82;103211.59;4988511;28;20138;-82
2024/01/30 02:35:19;;;;;;;45.70;29.95;;;;;;;0.74;82.69;103181.22;4971059;28;20062;-82
2024/01/30 02:37:46;;;;;;;43.03;29.10;;;;;;;1.44;82.17;103301.09;4987271;28;20082;-82
2024/01/30 02:40:13;;;;;;;46.22;30.88;;;;;;;1.34;81.77;103286.31;5003769;28;20082;-82
2024/01/30 02:42:41;;;;;;;39.55;25.70;;;;;;;1.29;82.20;103280.25;4971148;28;20181;-82
2024/01/30 02:45:09;;;;;;;41.20;27.33;;;;;;;1.42;81.93;103281.91;4986702;28;20502;-82
2024/01/30 02:47:36;;;;;;;34.80;25.25;;;;;;;0.82;80.74;103182.03;4967593;28;20062;-83
2024/01/30 02:50:03;;;;;;;33.97;25.58;;;;;;;0.95;80.47;103177.59;4968183;28;20046;-82
2024/01/30 02:52:30;;;;;;;37.10;25.52;;;;;;;1.34;79.82;103254.91;4969399;28;20425;-82
2024/01/30 02:54:57;;;;;;;38.05;26.05;;;;;;;1.23;79.60;103261.97;4967632;28;20142;-82
2024/01/30 02:57:25;;;;;;;34.72;25.58;;;;;;;1.21;79.14;103259.34;4954907;28;20047;-82
2024/01/30 02:59:52;;;;;;;35.35;24.95;;;;;;;1.25;79.72;103271.53;4971278;28;20054;-82
2024/01/30 03:02:18;;;;;;;35.88;25.70;;;;;;;1.33;79.58;103281.97;4973313;28;20126;-81
2024/01/30 03:04:45;;;;;;;34.97;24.05;;;;;;;0.23;79.31;103095.28;4974246;28;20374;-82
2024/01/30 03:07:12;;;;;;;36.67;25.20;;;;;;;1.03;79.40;103244.66;4990495;28;20042;-82
2024/01/30 03:09:42;;;;;;;34.07;24.73;;;;;;;1.05;79.37;103249.91;4974223;28;20057;-82
2024/01/30 03:12:09;;;;;;;34.13;24.97;;;;;;;0.80;79.71;103215.16;5006645;28;20078;-82
2024/01/30 03:14:37;;;;;;;37.50;25.83;;;;;;;1.15;79.66;103275.13;4974497;28;20082;-82
2024/01/30 03:17:04;;;;;;;34.70;24.17;;;;;;;1.16;79.43;103271.59;4990695;28;20057;-83
2024/01/30 03:19:31;;;;;;;37.50;25.13;;;;;;;0.92;79.16;103241.25;4970845;28;20066;-82
2024/01/30 03:21:58;;;;;;;38.22;26.80;;;;;;;1.00;79.60;103265.63;4954856;28;20301;-82
2024/01/30 03:24:25;;;;;;;35.93;25.27;;;;;;;0.98;79.29;103259.53;4954511;28;20367;-83
2024/01/30 03:26:52;;;;;;;36.17;26.27;;;;;;;0.64;79.27;103193.50;4954693;28;20070;-81
2024/01/30 03:29:18;;;;;;;40.40;25.13;;;;;;;0.92;79.09;103241.25;4955822;28;20524;-82
2024/01/30 03:31:45;;;;;;;42.97;27.33;;;;;;;1.10;78.93;103269.03;4956714;28;20142;-81
2024/01/30 03:34:12;;;;;;;42.67;27.53;;;;;;;1.02;78.72;103245.56;4991685;28;20054;-83
2024/01/30 03:36:39;;;;;;;39.93;26.47;;;;;;;0.88;79.02;103250.00;4977676;28;20463;-83
2024/01/30 03:39:06;;;;;;;36.20;25.60;;;;;;;0.74;79.12;103236.13;4992827;28;20440;-81
2024/01/30 03:41:33;;;;;;;36.73;25.73;;;;;;;0.94;79.38;103265.66;4990833;28;20444;-82
2024/01/30 03:43:59;;;;;;;37.33;26.17;;;;;;;0.63;79.45;103224.00;4973723;28;20054;-82
2024/01/30 03:46:26;;;;;;;38.07;25.30;;;;;;;0.81;79.28;103254.41;4991093;28;20145;-82
2024/01/30 03:48:53;;;;;;;40.20;26.77;;;;;;;0.73;79.26;103250.06;4985487;28;20051;-82
2024/01/30 03:51:20;;;;;;;38.65;26.23;;;;;;;0.66;78.82;103235.31;4985955;28;20047;-82
2024/01/30 03:53:47;;;;;;;37.90;26.53;;;;;;;0.67;78.74;103242.28;4986465;28;20565;-82
2024/01/30 03:56:14;;;;;;;35.70;25.13;;;;;;;0.65;79.53;103252.72;4954413;28;20121;-82
2024/01/30 03:58:41;;;;;;;37.17;24.48;;;;;;;0.66;79.40;103258.84;4954455;28;20150;-82
2024/01/30 04:01:12;;;;;;;38.10;27.13;;;;;;;0.07;79.38;103157.19;4971379;28;20058;-82
2024/01/30 04:03:39;;;;;;;39.00;25.88;;;;;;;0.76;79.54;103263.16;4985178;28;20062;-83
2024/01/30 04:06:06;;;;;;;40.70;25.20;;;;;;;0.61;78.72;103243.19;4990195;28;20077;-82
2024/01/30 04:08:33;;;;;;;37.80;25.63;;;;;;;0.60;79.00;103238.81;4972124;28;20060;-82
2024/01/30 04:11:05;;;;;;;35.30;24.80;;;;;;;0.54;78.68;103244.94;4973157;28;20489;-82
2024/01/30 04:13:32;;;;;;;;;;;;;;;0.64;78.10;103264.94;4989880;28;20053;-81
2024/01/30 04:16:03;;;;;;;35.80;24.73;;;;;;;0.30;78.43;103192.81;4989356;28;19926;-82
2024/01/30 04:18:30;;;;;;;37.00;24.90;;;;;;;0.56;78.39;103243.22;4984860;28;20055;-82
2024/01/30 04:20:57;;;;;;;34.33;24.53;;;;;;;0.62;78.77;103263.22;4969844;28;20050;-82
2024/01/30 04:23:23;;;;;;;38.97;25.23;;;;;;;0.71;77.42;103251.84;4970865;28;20054;-81
2024/01/30 04:25:50;;;;;;;35.73;25.17;;;;;;;0.55;77.52;103228.38;4954100;28;20113;-82
2024/01/30 04:28:18;;;;;;;35.03;25.50;;;;;;;0.69;77.31;103251.84;4970813;28;20141;-82
2024/01/30 04:30:45;;;;;;;34.93;24.47;;;;;;;0.54;77.55;103250.19;4953562;28;20465;-81
2024/01/30 04:33:12;;;;;;;35.70;25.17;;;;;;;0.27;78.00;103206.75;4964325;28;20065;-81
2024/01/30 04:35:39;;;;;;;35.50;24.33;;;;;;;0.56;78.06;103253.66;4989940;28;20439;-81
2024/01/30 04:38:05;;;;;;;35.87;25.27;;;;;;;0.41;77.60;103230.19;4988828;28;20261;-81
2024/01/30 04:40:32;;;;;;;34.40;25.50;;;;;;;0.53;78.24;103258.88;4972696;28;20072;-83
2024/01/30 04:42:59;;;;;;;38.20;26.43;;;;;;;0.36;77.98;103229.34;4972573;28;20381;-82
2024/01/30 04:45:26;;;;;;;40.45;26.90;;;;;;;0.21;78.32;103199.78;4972089;28;20142;-81
2024/01/30 04:47:52;;;;;;;35.03;25.50;;;;;;;0.49;78.86;103244.13;4968412;28;20061;-81
2024/01/30 04:50:19;;;;;;;34.30;24.52;;;;;;;0.47;78.54;103237.16;4969367;28;20058;-81
2024/01/30 04:52:46;;;;;;;36.17;25.50;;;;;;;0.48;78.47;103229.28;4953022;28;20046;-81
2024/01/30 04:55:13;;;;;;;38.23;26.27;;;;;;;0.58;78.51;103246.69;4952908;28;20091;-81
2024/01/30 04:57:39;;;;;;;36.20;26.17;;;;;;;0.55;79.09;103261.50;4969120;28;20050;-81
2024/01/30 05:00:07;;;;;;;35.30;25.00;;;;;;;0.50;78.85;103243.22;4952819;28;20054;-81
2024/01/30 05:02:33;;;;;;;35.70;24.23;;;;;;;0.63;77.99;103257.09;4957097;28;20508;-81
2024/01/30 05:05:00;;;;;;;37.30;24.60;;;;;;;0.45;77.66;103242.38;4988043;28;20426;-81
2024/01/30 05:07:27;;;;;;;35.87;24.53;;;;;;;0.24;77.96;103192.81;4989730;28;20485;-81
2024/01/30 05:09:54;;;;;;;36.03;24.37;;;;;;;0.49;77.71;103245.88;4972745;28;20154;-81
2024/01/30 05:12:25;;;;;;;35.92;24.60;;;;;;;0.33;77.78;103234.59;4972927;28;20050;-79
2024/01/30 05:14:51;;;;;;;31.67;25.07;;;;;;;0.41;77.78;103243.25;4987844;28;20055;-80
2024/01/30 05:17:18;;;;;;;31.90;24.75;;;;;;;0.37;77.88;103237.19;4987222;28;20473;-81
2024/01/30 05:19:45;;;;;;;33.93;25.87;;;;;;;0.35;77.38;103238.06;4989255;28;20168;-81
2024/01/30 05:22:15;;;;;;;34.10;25.10;;;;;;;0.48;77.80;103271.09;4987417;28;20058;-81
2024/01/30 05:24:42;;;;;;;36.17;24.03;;;;;;;0.50;77.84;103289.41;4988795;28;20504;-82
2024/01/30 05:27:10;;;;;;;38.40;25.90;;;;;;;0.40;78.23;103278.13;4987828;28;20582;-82
2024/01/30 05:29:36;;;;;;;34.53;25.23;;;;;;;0.43;78.11;103285.94;4989160;28;20054;-82
2024/01/30 05:32:05;;;;;;;37.75;27.52;;;;;;;-0.16;77.95;103188.59;4987682;28;20469;-81
2024/01/30 05:34:32;;;;;;;37.13;25.57;;;;;;;0.13;78.15;103238.13;4972216;28;20539;-81
2024/01/30 05:36:59;;;;;;;36.92;26.65;;;;;;;0.43;78.53;103293.78;4990027;28;20054;-82
2024/01/30 05:39:25;;;;;;;35.87;26.13;;;;;;;0.40;78.41;103280.72;4977896;28;20045;-81
2024/01/30 05:41:52;;;;;;;38.87;27.03;;;;;;;0.28;78.39;103275.56;4995710;28;20058;-81
2024/01/30 05:44:19;;;;;;;39.90;26.87;;;;;;;0.42;78.60;103287.69;4999336;28;20100;-81
2024/01/30 05:46:45;;;;;;;39.87;26.20;;;;;;;0.40;78.55;103283.34;4991148;28;20062;-81
2024/01/30 05:49:12;;;;;;;39.50;27.10;;;;;;;0.35;78.61;103283.34;4968051;28;20442;-81
2024/01/30 05:51:39;;;;;;;39.13;27.20;;;;;;;0.39;78.70;103289.47;4969824;28;20062;-81
2024/01/30 05:54:06;;;;;;;40.67;28.20;;;;;;;0.28;79.02;103271.19;4968524;28;20082;-82
2024/01/30 05:56:32;;;;;;;38.83;27.33;;;;;;;0.17;79.10;103249.44;4968215;28;20058;-82
2024/01/30 05:58:59;;;;;;;45.17;27.43;;;;;;;0.31;79.13;103280.75;4967807;28;20049;-81
2024/01/30 06:01:26;;;;;;;42.38;26.95;;;;;;;0.18;79.60;103267.72;4967841;28;20047;-80
2024/01/30 06:03:53;;;;;;;48.63;31.50;;;;;;;0.27;79.18;103284.25;4974712;28;20138;-81
2024/01/30 06:06:20;;;;;;;41.87;28.97;;;;;;;0.23;79.05;103291.22;4965956;28;20051;-81
2024/01/30 06:08:46;;;;;;;45.40;28.17;;;;;;;0.07;79.66;103252.97;4969748;28;20537;-81
2024/01/30 06:11:13;;;;;;;42.43;28.63;;;;;;;0.14;79.68;103271.22;4982823;28;20349;-81
2024/01/30 06:13:40;;;;;;;41.90;28.97;;;;;;;0.14;79.48;103279.06;4986533;28;20061;-82
2024/01/30 06:16:11;;;;;;;47.40;31.03;;;;;;;0.14;80.16;103286.03;4969471;28;20049;-81
2024/01/30 06:18:38;;;;;;;44.93;29.53;;;;;;;0.19;79.82;103290.38;4986067;28;20169;-81
2024/01/30 06:21:05;;;;;;;48.40;30.67;;;;;;;0.31;79.59;103291.22;4970370;28;20054;-81
2024/01/30 06:23:32;;;;;;;44.73;30.07;;;;;;;0.23;79.66;103274.69;4970390;28;20054;-81
2024/01/30 06:25:58;;;;;;;45.63;31.10;;;;;;;0.35;79.62;103293.81;4968436;28;20047;-81
2024/01/30 06:28:25;;;;;;;47.70;28.77;;;;;;;0.19;79.58;103269.50;4986341;28;20126;-81
2024/01/30 06:30:52;;;;;;;46.40;30.03;;;;;;;-0.05;79.53;103232.97;4988016;28;20050;-80
2024/01/30 06:33:19;;;;;;;47.30;30.80;;;;;;;0.36;79.47;103305.13;4978368;28;20054;-80
2024/01/30 06:35:45;;;;;;;45.87;28.63;;;;;;;0.38;79.87;103300.78;4972765;28;20059;-81
2024/01/30 06:38:13;;;;;;;47.53;31.00;;;;;;;0.32;79.46;103295.59;4990473;28;20110;-81
2024/01/30 06:40:39;;;;;;;44.40;29.70;;;;;;;0.26;79.71;103279.91;4991062;28;20053;-81
2024/01/30 06:43:07;;;;;;;46.93;30.50;;;;;;;0.03;79.29;103241.66;4991855;28;20058;-81
2024/01/30 06:45:34;;;;;;;45.23;29.53;;;;;;;0.42;79.23;103313.81;4990664;28;20121;-80
2024/01/30 06:48:01;;;;;;;40.30;28.90;;;;;;;0.32;78.59;103290.34;4992118;28;20129;-82
2024/01/30 06:50:28;;;;;;;45.95;29.17;;;;;;;0.43;78.34;103309.47;4990470;28;20046;-80
2024/01/30 06:52:55;;;;;;;45.93;28.83;;;;;;;0.26;77.88;103270.31;4991753;28;20046;-83
2024/01/30 06:55:22;;;;;;;47.00;29.45;;;;;;;0.52;77.97;103324.25;4975232;28;20294;-81
2024/01/30 06:57:49;;;;;;;45.87;30.03;;;;;;;0.16;77.53;103259.03;4990468;28;20051;-83
2024/01/30 07:00:19;;;;;;;50.30;31.97;;;;;;;0.50;77.50;103319.03;4975101;28;20120;-82
2024/01/30 07:02:46;;;;;;;48.60;32.03;;;;;;;0.43;77.25;103312.06;4990129;28;20096;-82
2024/01/30 07:05:14;;;;;;;46.87;31.67;;;;;;;0.38;77.53;103311.22;4974385;28;20042;-81
2024/01/30 07:07:41;;;;;;;51.70;31.13;;;;;;;0.46;77.85;103322.50;4975547;28;20050;-80
2024/01/30 07:10:08;;;;;;;54.87;33.10;;;;;;;0.26;78.09;103293.84;4993551;28;20221;-81
2024/01/30 07:12:35;;;;;;;55.10;32.53;;;;;;;0.42;78.04;103318.19;4994954;28;20051;-82
2024/01/30 07:15:02;;;;;;;52.67;32.53;;;;;;;0.47;78.23;103321.66;4991882;28;20046;-82
2024/01/30 07:17:29;;;;;;;52.00;32.50;;;;;;;0.43;78.66;103312.94;4990354;28;20050;-83
2024/01/30 07:19:56;;;;;;;50.43;32.50;;;;;;;0.45;78.27;103312.94;4990077;28;20063;-82
2024/01/30 07:22:23;;;;;;;50.83;32.30;;;;;;;0.42;78.88;103312.97;4992555;28;20062;-83
2024/01/30 07:24:51;;;;;;;56.67;32.27;;;;;;;0.31;78.35;103275.53;4990695;28;20073;-82
2024/01/30 07:27:19;;;;;;;55.23;33.60;;;;;;;0.66;77.96;103332.06;4991206;28;20056;-83
2024/01/30 07:29:45;;;;;;;52.80;32.40;;;;;;;0.63;78.27;103325.97;4974348;28;20125;-81
2024/01/30 07:32:12;;;;;;;55.10;31.97;;;;;;;0.34;78.16;103267.66;4991457;28;20077;-82
2024/01/30 07:34:39;;;;;;;55.07;32.93;;;;;;;0.73;77.82;103328.53;4972324;28;20105;-81
2024/01/30 07:37:19;;;;;;;51.43;31.97;;;;;;;0.69;77.79;103321.59;4989532;28;20137;-82
2024/01/30 07:39:47;;;;;;;51.40;32.53;;;;;;;0.69;77.66;103316.34;4990283;28;20540;-82
2024/01/30 07:42:14;;;;;;;47.23;30.90;;;;;;;0.48;77.76;103292.03;4988943;28;20055;-80
2024/01/30 07:44:40;;;;;;;46.72;29.92;;;;;;;0.70;77.84;103323.31;4992560;28;20504;-82
2024/01/30 07:47:07;;;;;;;45.97;29.13;;;;;;;0.50;77.75;103307.72;4994644;28;20065;-84
2024/01/30 07:49:34;;;;;;;45.97;29.83;;;;;;;0.70;77.88;103328.53;4974729;28;20058;-83
2024/01/30 07:52:02;;;;;;;44.03;28.60;;;;;;;0.71;78.15;103330.28;4989739;28;20620;-82
2024/01/30 07:54:33;;;;;;;47.80;29.73;;;;;;;0.63;78.09;103312.00;4991141;28;20046;-84
2024/01/30 07:57:00;;;;;;;44.07;30.37;;;;;;;0.82;77.29;103328.47;4989681;28;20047;-82
2024/01/30 07:59:27;;;;;;;41.63;28.77;;;;;;;0.81;77.69;103337.22;4989738;28;20774;-81
2024/01/30 08:01:54;;;;;;;45.50;29.37;;;;;;;0.73;78.10;103328.53;4989404;28;20054;-82
2024/01/30 08:04:21;;;;;;;50.60;29.57;;;;;;;0.76;78.16;103333.75;4960379;28;20211;-82
2024/01/30 08:06:48;;;;;;;42.40;29.93;;;;;;;0.18;78.35;103236.38;4966875;28;20051;-82
2024/01/30 08:09:15;;;;;;;44.10;29.20;;;;;;;0.77;78.61;103319.78;4969250;28;20413;-82
2024/01/30 08:11:42;;;;;;;42.93;29.57;;;;;;;0.89;78.75;103335.44;4969633;28;20207;-83
2024/01/30 08:14:08;;;;;;;46.77;30.70;;;;;;;0.40;78.18;103238.91;4969301;28;20050;-83
2024/01/30 08:16:35;;;;;;;50.77;32.17;;;;;;;0.54;78.19;103259.78;4969247;28;20420;-82
2024/01/30 08:19:02;;;;;;;47.97;31.27;;;;;;;1.12;78.04;103343.19;4968829;28;20469;-81
2024/01/30 08:21:30;;;;;;;53.17;33.83;;;;;;;1.26;77.16;103343.06;4969107;28;20043;-82
2024/01/30 08:23:56;;;;;;;58.80;35.93;;;;;;;1.29;77.16;103340.47;4959549;28;20102;-82
2024/01/30 08:26:23;;;;;;;52.80;34.33;;;;;;;1.28;77.02;103338.69;4969167;28;20051;-83
2024/01/30 08:28:51;;;;;;;49.50;31.63;;;;;;;1.30;77.07;103347.41;4970607;28;20283;-82
2024/01/30 08:31:18;;;;;;;47.13;31.17;;;;;;;1.02;77.44;103283.91;4968991;28;20473;-82
2024/01/30 08:33:45;;;;;;;48.27;29.40;;;;;;;1.34;77.58;103348.28;4963722;28;20504;-82
2024/01/30 08:36:16;;;;;;;44.83;29.37;;;;;;;0.39;77.50;103171.84;4969672;28;20065;-82
2024/01/30 08:38:43;;;;;;;50.10;31.37;;;;;;;1.32;78.01;103324.72;4971049;28;20452;-81
2024/01/30 08:41:10;;;;;;;49.10;30.83;;;;;;;1.52;78.93;103357.75;4968900;28;20082;-81
2024/01/30 08:43:37;;;;;;;45.37;30.00;;;;;;;1.62;78.71;103354.19;4969455;28;20050;-81
2024/01/30 08:46:04;;;;;;;52.07;32.10;;;;;;;1.67;78.70;103342.78;4953288;28;20489;-82
2024/01/30 08:48:30;;;;;;;47.47;30.57;;;;;;;1.27;78.80;103255.84;4970022;28;20102;-80
2024/01/30 08:50:57;;;;;;;50.30;29.65;;;;;;;0.94;78.02;103194.16;4968522;28;20137;-81
2024/01/30 08:53:24;;;;;;;50.33;32.40;;;;;;;2.07;78.10;103354.69;4968003;28;20049;-82
2024/01/30 08:55:51;;;;;;;53.42;33.80;;;;;;;2.05;77.84;103332.88;4968878;28;20392;-81
2024/01/30 08:58:19;;;;;;;49.57;32.40;;;;;;;2.21;77.55;103352.81;4967809;28;20061;-82
2024/01/30 09:00:46;;;;;;;48.15;31.27;;;;;;;2.34;77.80;103364.03;4968571;28;20050;-82
2024/01/30 09:03:13;;;;;;;50.70;32.17;;;;;;;2.11;77.27;103302.25;4968495;28;20133;-83
2024/01/30 09:05:40;;;;;;;50.13;31.88;;;;;;;2.37;76.74;103342.16;4963973;28;20054;-82
2024/01/30 09:08:07;;;;;;;52.17;32.42;;;;;;;2.47;77.41;103351.66;4971454;28;20051;-83
2024/01/30 09:10:34;;;;;;;47.85;31.67;;;;;;;2.44;77.45;103338.59;4979608;28;20077;-84
2024/01/30 09:13:01;;;;;;;50.95;33.22;;;;;;;2.53;77.00;103351.59;4978439;28;20292;-83
2024/01/30 09:15:28;;;;;;;50.22;32.55;;;;;;;2.68;77.66;103361.03;4972496;28;20402;-83
2024/01/30 09:17:54;;;;;;;49.03;31.08;;;;;;;2.48;77.27;103311.44;4974018;28;20089;-82
2024/01/30 09:20:22;;;;;;;50.75;31.38;;;;;;;2.61;77.56;103320.91;4978678;28;20062;-83
2024/01/30 09:22:50;;;;;;;49.67;31.40;;;;;;;2.65;77.63;103304.25;4968293;28;20050;-83
2024/01/30 09:25:18;;;;;;;54.72;33.00;;;;;;;2.95;77.21;103349.34;4974107;28;20062;-83
2024/01/30 09:27:46;;;;;;;47.10;30.90;;;;;;;2.60;77.41;103257.97;4978581;28;20142;-83
2024/01/30 09:30:13;;;;;;;49.28;32.58;;;;;;;3.20;76.74;103349.84;4978380;28;20049;-82
2024/01/30 09:32:40;;;;;;;47.70;31.35;;;;;;;3.22;77.26;103359.44;4971019;28;20071;-82
2024/01/30 09:35:07;;;;;;;49.80;31.02;;;;;;;3.34;76.98;103353.16;4958225;28;20108;-82
2024/01/30 09:37:34;;;;;;;58.13;32.63;;;;;;;3.49;77.04;103362.56;4968395;28;20106;-82
2024/01/30 09:40:02;;;;;;;49.13;30.58;;;;;;;3.63;76.45;103359.72;4965660;28;20053;-82
2024/01/30 09:42:36;;;;;;;51.47;31.08;;;;;;;2.80;76.03;103202.63;4976859;28;20050;-82
2024/01/30 09:45:06;;;;;;;52.03;28.67;;;;;;;3.83;75.86;103357.63;4979081;28;20340;-82
2024/01/30 09:47:42;;;;;;;50.22;29.73;;;;;;;4.02;75.00;103367.84;4980711;28;20116;-81
2024/01/30 09:50:10;;;;;;;45.90;29.52;;;;;;;3.98;74.50;103339.88;4972671;28;20051;-83
2024/01/30 09:52:38;;;;;;;51.90;30.73;;;;;;;4.26;74.73;103362.16;4982061;28;20055;-83
2024/01/30 09:55:06;;;;;;;53.05;32.30;;;;;;;4.33;73.89;103347.13;4981267;28;20053;-81
2024/01/30 09:57:36;;;;;;;50.33;30.90;;;;;;;4.34;74.04;103325.19;4977488;28;20047;-81
2024/01/30 10:00:04;;;;;;;54.53;31.52;;;;;;;3.94;73.30;103236.56;4976679;28;20049;-82
2024/01/30 10:02:34;;;;;;;53.67;30.25;;;;;;;4.91;72.74;103351.22;4978444;28;20469;-81
2024/01/30 10:05:02;;;;;;;50.92;31.13;;;;;;;5.07;71.43;103350.91;4969634;28;20168;-82
2024/01/30 10:07:30;;;;;;;48.38;30.45;;;;;;;5.07;71.16;103308.75;4989576;28;20050;-82
2024/01/30 10:09:57;;;;;;;51.53;31.48;;;;;;;5.07;70.31;103271.91;4985862;28;20169;-82
2024/01/30 10:12:28;;;;;;;53.00;32.67;;;;;;;5.51;70.18;103309.47;4975380;28;20050;-81
2024/01/30 10:14:56;;;;;;;52.28;31.02;;;;;;;5.51;69.09;103302.47;4974645;28;20058;-82
2024/01/30 10:17:25;;;;;;;47.95;31.23;;;;;;;5.72;68.45;103306.31;4991330;28;20046;-82
2024/01/30 10:19:59;;;;;;;47.15;29.48;;;;;;;5.93;67.47;103333.06;4983043;28;20077;-81
2024/01/30 10:22:27;;;;;;;54.30;29.63;;;;;;;5.84;68.14;103330.66;4992434;28;20058;-81
2024/01/30 10:24:54;;;;;;;48.75;29.15;;;;;;;5.97;67.21;103335.59;4986915;28;20046;-82
2024/01/30 10:27:27;;;;;;;47.35;29.00;;;;;;;5.85;66.75;103313.91;5004484;28;20073;-83
2024/01/30 10:29:54;;;;;;;47.10;29.77;;;;;;;5.95;67.22;103326.88;4994332;28;20057;-82
2024/01/30 10:32:21;;;;;;;51.45;31.40;;;;;;;6.05;68.19;103332.78;4980112;28;20543;-82
2024/01/30 10:34:48;;;;;;;51.42;31.50;;;;;;;5.76;67.00;103288.66;4972367;28;20065;-83
2024/01/30 10:37:16;;;;;;;45.30;31.48;;;;;;;5.78;66.98;103285.09;4991679;28;20634;-81
2024/01/30 10:39:45;;;;;;;47.15;31.50;;;;;;;5.84;67.57;103291.09;4980284;28;20230;-82
2024/01/30 10:42:27;;;;;;;51.28;30.63;;;;;;;6.11;67.06;103311.50;4971076;28;20047;-80
2024/01/30 10:45:03;;;;;;;49.28;30.48;;;;;;;6.29;66.59;103306.66;4984206;28;20046;-82
2024/01/30 10:47:30;;;;;;;50.05;31.05;;;;;;;6.15;67.42;103281.50;4981135;28;20049;-81
2024/01/30 10:49:57;;;;;;;45.63;29.80;;;;;;;6.31;67.09;103304.81;4981865;28;20105;-80
2024/01/30 10:52:25;;;;;;;45.85;29.15;;;;;;;6.41;66.40;103303.66;4984693;28;20048;-81
2024/01/30 10:54:54;;;;;;;47.50;29.35;;;;;;;6.47;65.87;103286.78;4989782;28;20039;-82
2024/01/30 10:57:25;;;;;;;43.90;28.55;;;;;;;6.60;65.51;103288.13;4980227;28;20050;-81
2024/01/30 10:59:55;;;;;;;43.90;28.80;;;;;;;6.80;64.65;103296.34;4990751;28;20484;-81
2024/01/30 11:02:23;;;;;;;45.03;28.75;;;;;;;6.78;63.91;103262.97;4987428;28;20062;-82
2024/01/30 11:04:56;;;;;;;47.55;30.15;;;;;;;7.05;63.38;103291.16;4986918;28;20058;-81
2024/01/30 11:07:28;;;;;;;44.85;29.48;;;;;;;7.03;63.36;103266.56;4988527;28;20515;-82
2024/01/30 11:09:58;;;;;;;;;;;;;;;7.12;62.96;103276.00;4985237;28;20280;-81
2024/01/30 11:12:26;;;;;;;49.30;29.55;;;;;;;6.93;62.57;103241.38;4970746;28;19951;-82
2024/01/30 11:15:13;;;;;;;46.88;31.05;;;;;;;7.02;62.89;103272.78;4989437;28;20057;-81
2024/01/30 11:17:41;;;;;;;47.42;30.65;;;;;;;6.90;63.09;103254.69;4989292;28;20089;-82